sensor_id;sensor_type;location;lat;lon;timestamp;temperature;humidity
41168;DHT22;26906;45.658;9.272;2022-11-15T06:37:09;9.30;99.90
41168;DHT22;26906;45.658;9.272;2022-11-15T06:39:53;9.40;99.90
41168;DHT22;26906;45.658;9.272;2022-11-15T06:42:37;9.50;99.90
41168;DHT22;26906;45.658;9.272;2022-11-15T06:45:21;9.50;99.90
41168;DHT22;26906;45.658;9.272;2022-11-15T06:48:06;9.50;99.90
41168;DHT22;26906;45.658;9.272;2022-11-15T06:50:53;9.50;99.90
41168;DHT22;26906;45.658;9.272;2022-11-15T06:53:38;9.60;99.90
41168;DHT22;26906;45.658;9.272;2022-11-15T06:56:22;9.60;99.90
41168;DHT22;26906;45.658;9.272;2022-11-15T06:59:06;9.80;99.90
41168;DHT22;26906;45.658;9.272;2022-11-15T07:01:50;9.70;99.90
41168;DHT22;26906;45.658;9.272;2022-11-15T07:04:34;9.70;99.90
41168;DHT22;26906;45.658;9.272;2022-11-15T07:07:20;9.70;99.90
41168;DHT22;26906;45.658;9.272;2022-11-15T07:10:04;9.70;99.90
41168;DHT22;26906;45.658;9.272;2022-11-15T07:12:48;9.70;99.90
41168;DHT22;26906;45.658;9.272;2022-11-15T07:15:33;9.90;99.90
41168;DHT22;26906;45.658;9.272;2022-11-15T07:18:26;9.80;99.90
41168;DHT22;26906;45.658;9.272;2022-11-15T07:21:11;9.80;99.90
41168;DHT22;26906;45.658;9.272;2022-11-15T07:23:56;9.90;99.90
41168;DHT22;26906;45.658;9.272;2022-11-15T07:26:40;9.90;99.90
41168;DHT22;26906;45.658;9.272;2022-11-15T07:29:24;10.00;99.90
41168;DHT22;26906;45.658;9.272;2022-11-15T07:32:09;10.10;99.90
41168;DHT22;26906;45.658;9.272;2022-11-15T07:34:53;10.20;99.90
41168;DHT22;26906;45.658;9.272;2022-11-15T07:37:37;10.20;99.90
41168;DHT22;26906;45.658;9.272;2022-11-15T07:40:21;10.10;99.90
41168;DHT22;26906;45.658;9.272;2022-11-15T07:43:07;10.20;99.90
41168;DHT22;26906;45.658;9.272;2022-11-15T07:45:51;10.20;99.90
41168;DHT22;26906;45.658;9.272;2022-11-15T07:48:36;10.20;99.90
41168;DHT22;26906;45.658;9.272;2022-11-15T07:51:20;10.20;99.90
41168;DHT22;26906;45.658;9.272;2022-11-15T07:54:04;10.30;99.90
41168;DHT22;26906;45.658;9.272;2022-11-15T07:56:48;10.30;99.90
41168;DHT22;26906;45.658;9.272;2022-11-15T07:59:32;10.20;99.90
41168;DHT22;26906;45.658;9.272;2022-11-15T08:02:20;10.30;99.90
41168;DHT22;26906;45.658;9.272;2022-11-15T08:05:04;10.30;99.90
41168;DHT22;26906;45.658;9.272;2022-11-15T08:07:48;10.30;99.90
41168;DHT22;26906;45.658;9.272;2022-11-15T08:10:35;10.30;99.90
41168;DHT22;26906;45.658;9.272;2022-11-15T08:13:20;10.40;99.90
41168;DHT22;26906;45.658;9.272;2022-11-15T08:16:05;10.40;99.90
41168;DHT22;26906;45.658;9.272;2022-11-15T08:18:49;10.50;99.90
41168;DHT22;26906;45.658;9.272;2022-11-15T08:21:34;10.60;99.90
41168;DHT22;26906;45.658;9.272;2022-11-15T08:24:19;10.70;99.90
41168;DHT22;26906;45.658;9.272;2022-11-15T08:27:04;10.70;99.90
41168;DHT22;26906;45.658;9.272;2022-11-15T08:29:48;10.70;99.90
41168;DHT22;26906;45.658;9.272;2022-11-15T08:32:33;10.80;99.90
41168;DHT22;26906;45.658;9.272;2022-11-15T08:35:17;10.70;99.90
41168;DHT22;26906;45.658;9.272;2022-11-15T08:38:01;10.70;99.90
41168;DHT22;26906;45.658;9.272;2022-11-15T08:40:45;10.80;99.90
41168;DHT22;26906;45.658;9.272;2022-11-15T08:43:29;10.80;99.90
41168;DHT22;26906;45.658;9.272;2022-11-15T08:46:14;10.80;99.90
41168;DHT22;26906;45.658;9.272;2022-11-15T08:48:58;10.70;99.90
41168;DHT22;26906;45.658;9.272;2022-11-15T08:51:42;10.80;99.90
41168;DHT22;26906;45.658;9.272;2022-11-15T08:54:26;10.80;99.90
41168;DHT22;26906;45.658;9.272;2022-11-15T08:57:10;10.80;99.90
41168;DHT22;26906;45.658;9.272;2022-11-15T08:59:55;10.80;99.90
41168;DHT22;26906;45.658;9.272;2022-11-15T09:02:40;10.80;99.90
41168;DHT22;26906;45.658;9.272;2022-11-15T09:05:24;10.80;99.90
41168;DHT22;26906;45.658;9.272;2022-11-15T09:08:09;10.90;99.90
41168;DHT22;26906;45.658;9.272;2022-11-15T09:10:53;11.00;99.90
41168;DHT22;26906;45.658;9.272;2022-11-15T09:13:37;11.10;99.90
41168;DHT22;26906;45.658;9.272;2022-11-15T09:16:22;11.10;99.90
41168;DHT22;26906;45.658;9.272;2022-11-15T09:19:06;11.10;99.90
41168;DHT22;26906;45.658;9.272;2022-11-15T09:21:51;11.20;99.90
41168;DHT22;26906;45.658;9.272;2022-11-15T09:24:35;11.20;99.90
41168;DHT22;26906;45.658;9.272;2022-11-15T09:27:19;11.30;99.90
41168;DHT22;26906;45.658;9.272;2022-11-15T09:30:04;11.40;99.90
41168;DHT22;26906;45.658;9.272;2022-11-15T09:32:48;11.40;99.90
41168;DHT22;26906;45.658;9.272;2022-11-15T09:35:32;11.40;99.90
41168;DHT22;26906;45.658;9.272;2022-11-15T09:38:16;11.50;99.90
41168;DHT22;26906;45.658;9.272;2022-11-15T09:50:31;11.50;99.90
41168;DHT22;26906;45.658;9.272;2022-11-15T09:52:59;11.60;99.90
41168;DHT22;26906;45.658;9.272;2022-11-15T09:55:34;11.70;99.90
41168;DHT22;26906;45.658;9.272;2022-11-15T09:58:17;11.70;99.90
41168;DHT22;26906;45.658;9.272;2022-11-15T10:00:47;11.70;99.90
41168;DHT22;26906;45.658;9.272;2022-11-15T10:03:37;11.70;99.90
41168;DHT22;26906;45.658;9.272;2022-11-15T10:06:05;11.70;99.90
41168;DHT22;26906;45.658;9.272;2022-11-15T10:11:10;11.70;99.90
41168;DHT22;26906;45.658;9.272;2022-11-15T10:13:40;11.70;99.90
41168;DHT22;26906;45.658;9.272;2022-11-15T10:21:46;11.70;99.90
41168;DHT22;26906;45.658;9.272;2022-11-15T10:24:20;11.70;99.90
41168;DHT22;26906;45.658;9.272;2022-11-15T10:26:49;11.80;99.90
41168;DHT22;26906;45.658;9.272;2022-11-15T10:29:19;11.80;99.90
41168;DHT22;26906;45.658;9.272;2022-11-15T10:31:45;11.80;99.90
41168;DHT22;26906;45.658;9.272;2022-11-15T10:34:17;11.80;99.90
41168;DHT22;26906;45.658;9.272;2022-11-15T10:36:47;11.80;99.90
41168;DHT22;26906;45.658;9.272;2022-11-15T10:39:19;11.90;99.90
41168;DHT22;26906;45.658;9.272;2022-11-15T10:41:44;11.80;99.90
41168;DHT22;26906;45.658;9.272;2022-11-15T10:46:43;11.80;99.90
41168;DHT22;26906;45.658;9.272;2022-11-15T10:49:22;11.80;99.90
41168;DHT22;26906;45.658;9.272;2022-11-15T10:51:51;11.80;99.90
41168;DHT22;26906;45.658;9.272;2022-11-15T10:56:53;11.80;99.90
41168;DHT22;26906;45.658;9.272;2022-11-15T10:59:34;11.80;99.90
41168;DHT22;26906;45.658;9.272;2022-11-15T11:02:01;11.80;99.90
41168;DHT22;26906;45.658;9.272;2022-11-15T11:04:27;11.80;99.90
41168;DHT22;26906;45.658;9.272;2022-11-15T11:06:58;11.90;99.90
41168;DHT22;26906;45.658;9.272;2022-11-15T11:09:34;11.90;99.90
41168;DHT22;26906;45.658;9.272;2022-11-15T11:12:03;11.80;99.90
41168;DHT22;26906;45.658;9.272;2022-11-15T11:14:33;11.90;99.90
41168;DHT22;26906;45.658;9.272;2022-11-15T11:23:16;11.90;99.90
41168;DHT22;26906;45.658;9.272;2022-11-15T11:37:15;11.80;99.90
41168;DHT22;26906;45.658;9.272;2022-11-15T11:43:03;11.70;99.90
41168;DHT22;26906;45.658;9.272;2022-11-15T11:50:37;11.70;99.90
41168;DHT22;26906;45.658;9.272;2022-11-15T11:53:22;11.70;99.90
41168;DHT22;26906;45.658;9.272;2022-11-15T11:55:57;11.70;99.90
41168;DHT22;26906;45.658;9.272;2022-11-15T12:01:00;11.80;99.90
41168;DHT22;26906;45.658;9.272;2022-11-15T12:03:35;12.00;99.90
41168;DHT22;26906;45.658;9.272;2022-11-15T12:06:31;12.00;99.90
41168;DHT22;26906;45.658;9.272;2022-11-15T12:17:11;12.00;99.90
41168;DHT22;26906;45.658;9.272;2022-11-15T12:19:38;12.00;99.90
41168;DHT22;26906;45.658;9.272;2022-11-15T12:22:12;12.00;99.90
41168;DHT22;26906;45.658;9.272;2022-11-15T12:24:43;12.00;99.90
41168;DHT22;26906;45.658;9.272;2022-11-15T12:27:24;12.10;99.90
41168;DHT22;26906;45.658;9.272;2022-11-15T12:29:55;12.10;99.90
41168;DHT22;26906;45.658;9.272;2022-11-15T12:32:31;12.10;99.90
41168;DHT22;26906;45.658;9.272;2022-11-15T12:35:03;12.00;99.90
41168;DHT22;26906;45.658;9.272;2022-11-15T12:45:44;12.00;99.90
41168;DHT22;26906;45.658;9.272;2022-11-15T13:01:09;12.00;99.90
41168;DHT22;26906;45.658;9.272;2022-11-15T13:03:36;12.10;99.90
41168;DHT22;26906;45.658;9.272;2022-11-15T13:06:43;12.10;99.90
41168;DHT22;26906;45.658;9.272;2022-11-15T13:11:56;12.10;99.90
41168;DHT22;26906;45.658;9.272;2022-11-15T13:19:53;12.10;99.90
41168;DHT22;26906;45.658;9.272;2022-11-15T13:22:21;12.10;99.90
41168;DHT22;26906;45.658;9.272;2022-11-15T13:25:15;12.10;99.90
41168;DHT22;26906;45.658;9.272;2022-11-15T13:27:48;12.00;99.90
41168;DHT22;26906;45.658;9.272;2022-11-15T13:30:28;12.00;99.90
41168;DHT22;26906;45.658;9.272;2022-11-15T13:32:55;12.10;99.90
41168;DHT22;26906;45.658;9.272;2022-11-15T13:35:28;12.10;99.90
41168;DHT22;26906;45.658;9.272;2022-11-15T13:37:57;12.10;99.90
41168;DHT22;26906;45.658;9.272;2022-11-15T13:40:35;12.20;99.90
41168;DHT22;26906;45.658;9.272;2022-11-15T13:43:26;12.20;99.90
41168;DHT22;26906;45.658;9.272;2022-11-15T13:46:10;12.20;99.90
41168;DHT22;26906;45.658;9.272;2022-11-15T13:48:36;12.20;99.90
41168;DHT22;26906;45.658;9.272;2022-11-15T13:51:04;12.20;99.90
41168;DHT22;26906;45.658;9.272;2022-11-15T13:53:33;12.20;99.90
41168;DHT22;26906;45.658;9.272;2022-11-15T13:56:01;12.20;99.90
41168;DHT22;26906;45.658;9.272;2022-11-15T13:58:29;12.20;99.90
41168;DHT22;26906;45.658;9.272;2022-11-15T14:01:04;12.30;99.90
41168;DHT22;26906;45.658;9.272;2022-11-15T14:03:37;12.20;99.90
41168;DHT22;26906;45.658;9.272;2022-11-15T14:06:12;12.30;99.90
41168;DHT22;26906;45.658;9.272;2022-11-15T14:08:39;12.20;99.90
41168;DHT22;26906;45.658;9.272;2022-11-15T14:11:26;12.20;99.90
41168;DHT22;26906;45.658;9.272;2022-11-15T14:16:38;12.20;99.90
41168;DHT22;26906;45.658;9.272;2022-11-15T14:19:05;12.20;99.90
41168;DHT22;26906;45.658;9.272;2022-11-15T14:21:31;12.20;99.90
41168;DHT22;26906;45.658;9.272;2022-11-15T14:24:19;12.10;99.90
41168;DHT22;26906;45.658;9.272;2022-11-15T14:26:45;12.10;99.90
41168;DHT22;26906;45.658;9.272;2022-11-15T14:29:30;12.20;99.90
41168;DHT22;26906;45.658;9.272;2022-11-15T14:32:16;12.20;99.90
41168;DHT22;26906;45.658;9.272;2022-11-15T14:34:46;12.20;99.90
41168;DHT22;26906;45.658;9.272;2022-11-15T14:39:51;12.20;99.90
41168;DHT22;26906;45.658;9.272;2022-11-15T14:42:24;12.20;99.90
41168;DHT22;26906;45.658;9.272;2022-11-15T14:44:50;12.20;99.90
41168;DHT22;26906;45.658;9.272;2022-11-15T14:47:15;12.20;99.90
41168;DHT22;26906;45.658;9.272;2022-11-15T14:49:44;12.30;99.90
41168;DHT22;26906;45.658;9.272;2022-11-15T14:52:27;12.30;99.90
41168;DHT22;26906;45.658;9.272;2022-11-15T14:54:54;12.30;99.90
41168;DHT22;26906;45.658;9.272;2022-11-15T14:57:21;12.30;99.90
41168;DHT22;26906;45.658;9.272;2022-11-15T14:59:53;12.20;99.90
41168;DHT22;26906;45.658;9.272;2022-11-15T15:02:21;12.20;99.90
41168;DHT22;26906;45.658;9.272;2022-11-15T15:04:48;12.30;99.90
41168;DHT22;26906;45.658;9.272;2022-11-15T15:07:14;12.30;99.90
41168;DHT22;26906;45.658;9.272;2022-11-15T15:09:40;12.20;99.90
41168;DHT22;26906;45.658;9.272;2022-11-15T15:12:18;12.20;99.90
41168;DHT22;26906;45.658;9.272;2022-11-15T15:14:45;12.30;99.90
41168;DHT22;26906;45.658;9.272;2022-11-15T15:17:12;12.20;99.90
41168;DHT22;26906;45.658;9.272;2022-11-15T15:19:38;12.20;99.90
41168;DHT22;26906;45.658;9.272;2022-11-15T15:22:04;12.10;99.90
41168;DHT22;26906;45.658;9.272;2022-11-15T15:24:29;12.10;99.90
41168;DHT22;26906;45.658;9.272;2022-11-15T15:26:55;12.10;99.90
41168;DHT22;26906;45.658;9.272;2022-11-15T15:29:21;12.10;99.90
41168;DHT22;26906;45.658;9.272;2022-11-15T15:31:55;12.10;99.90
41168;DHT22;26906;45.658;9.272;2022-11-15T15:34:21;12.10;99.90
41168;DHT22;26906;45.658;9.272;2022-11-15T15:36:47;12.00;99.90
41168;DHT22;26906;45.658;9.272;2022-11-15T15:39:12;11.90;99.90
41168;DHT22;26906;45.658;9.272;2022-11-15T15:41:38;11.90;99.90
41168;DHT22;26906;45.658;9.272;2022-11-15T15:44:04;11.90;99.90
41168;DHT22;26906;45.658;9.272;2022-11-15T15:46:34;12.00;99.90
41168;DHT22;26906;45.658;9.272;2022-11-15T15:48:59;12.00;99.90
41168;DHT22;26906;45.658;9.272;2022-11-15T15:51:26;12.00;99.90
41168;DHT22;26906;45.658;9.272;2022-11-15T15:53:51;11.90;99.90
41168;DHT22;26906;45.658;9.272;2022-11-15T15:56:22;11.90;99.90
41168;DHT22;26906;45.658;9.272;2022-11-15T15:58:48;12.00;99.90
41168;DHT22;26906;45.658;9.272;2022-11-15T16:01:13;12.00;99.90
41168;DHT22;26906;45.658;9.272;2022-11-15T16:03:39;11.90;99.90
41168;DHT22;26906;45.658;9.272;2022-11-15T16:06:22;12.00;99.90
41168;DHT22;26906;45.658;9.272;2022-11-15T16:08:50;11.90;99.90
41168;DHT22;26906;45.658;9.272;2022-11-15T16:11:16;12.00;99.90
41168;DHT22;26906;45.658;9.272;2022-11-15T16:13:42;12.00;99.90
41168;DHT22;26906;45.658;9.272;2022-11-15T16:16:09;11.90;99.90
41168;DHT22;26906;45.658;9.272;2022-11-15T16:18:38;11.90;99.90
41168;DHT22;26906;45.658;9.272;2022-11-15T16:21:03;11.80;99.90
41168;DHT22;26906;45.658;9.272;2022-11-15T16:23:29;11.80;99.90
41168;DHT22;26906;45.658;9.272;2022-11-15T16:26:01;11.80;99.90
41168;DHT22;26906;45.658;9.272;2022-11-15T16:28:30;11.80;99.90
41168;DHT22;26906;45.658;9.272;2022-11-15T16:31:04;11.70;99.90
41168;DHT22;26906;45.658;9.272;2022-11-15T16:33:31;11.70;99.90
41168;DHT22;26906;45.658;9.272;2022-11-15T16:35:57;11.90;99.90
41168;DHT22;26906;45.658;9.272;2022-11-15T16:38:23;11.80;99.90
41168;DHT22;26906;45.658;9.272;2022-11-15T16:40:48;11.80;99.90
41168;DHT22;26906;45.658;9.272;2022-11-15T16:43:14;11.80;99.90
41168;DHT22;26906;45.658;9.272;2022-11-15T16:45:40;11.90;99.90
41168;DHT22;26906;45.658;9.272;2022-11-15T16:48:07;11.90;99.90
41168;DHT22;26906;45.658;9.272;2022-11-15T16:50:40;11.90;99.90
41168;DHT22;26906;45.658;9.272;2022-11-15T16:53:06;11.80;99.90
41168;DHT22;26906;45.658;9.272;2022-11-15T16:55:31;11.80;99.90
41168;DHT22;26906;45.658;9.272;2022-11-15T16:57:58;11.80;99.90
41168;DHT22;26906;45.658;9.272;2022-11-15T17:00:24;11.80;99.90
41168;DHT22;26906;45.658;9.272;2022-11-15T17:02:51;11.80;99.90
41168;DHT22;26906;45.658;9.272;2022-11-15T17:05:21;11.90;99.90
41168;DHT22;26906;45.658;9.272;2022-11-15T17:07:49;11.80;99.90
41168;DHT22;26906;45.658;9.272;2022-11-15T17:10:15;11.70;99.90
41168;DHT22;26906;45.658;9.272;2022-11-15T17:12:41;11.80;99.90
41168;DHT22;26906;45.658;9.272;2022-11-15T17:15:07;11.80;99.90
41168;DHT22;26906;45.658;9.272;2022-11-15T17:17:33;11.80;99.90
41168;DHT22;26906;45.658;9.272;2022-11-15T17:19:58;11.80;99.90
41168;DHT22;26906;45.658;9.272;2022-11-15T17:22:24;11.80;99.90
41168;DHT22;26906;45.658;9.272;2022-11-15T17:24:50;11.80;99.90
41168;DHT22;26906;45.658;9.272;2022-11-15T17:27:18;11.80;99.90
41168;DHT22;26906;45.658;9.272;2022-11-15T17:29:47;11.90;99.90
41168;DHT22;26906;45.658;9.272;2022-11-15T17:32:13;11.80;99.90
41168;DHT22;26906;45.658;9.272;2022-11-15T17:34:38;11.80;99.90
41168;DHT22;26906;45.658;9.272;2022-11-15T17:37:04;11.80;99.90
41168;DHT22;26906;45.658;9.272;2022-11-15T17:39:30;11.80;99.90
41168;DHT22;26906;45.658;9.272;2022-11-15T17:41:56;11.80;99.90
41168;DHT22;26906;45.658;9.272;2022-11-15T17:44:22;11.80;99.90
41168;DHT22;26906;45.658;9.272;2022-11-15T17:46:47;11.70;99.90
41168;DHT22;26906;45.658;9.272;2022-11-15T17:49:13;11.70;99.90
41168;DHT22;26906;45.658;9.272;2022-11-15T17:51:39;11.80;99.90
41168;DHT22;26906;45.658;9.272;2022-11-15T17:54:04;11.70;99.90
41168;DHT22;26906;45.658;9.272;2022-11-15T17:56:30;11.70;99.90
41168;DHT22;26906;45.658;9.272;2022-11-15T17:58:57;11.70;99.90
41168;DHT22;26906;45.658;9.272;2022-11-15T18:01:30;11.70;99.90
41168;DHT22;26906;45.658;9.272;2022-11-15T18:03:57;11.60;99.90
41168;DHT22;26906;45.658;9.272;2022-11-15T18:06:26;11.60;99.90
41168;DHT22;26906;45.658;9.272;2022-11-15T18:08:53;11.70;99.90
41168;DHT22;26906;45.658;9.272;2022-11-15T18:11:23;11.70;99.90
41168;DHT22;26906;45.658;9.272;2022-11-15T18:13:55;11.70;99.90
41168;DHT22;26906;45.658;9.272;2022-11-15T18:16:24;11.60;99.90
41168;DHT22;26906;45.658;9.272;2022-11-15T18:18:50;11.70;99.90
41168;DHT22;26906;45.658;9.272;2022-11-15T18:21:21;11.70;99.90
41168;DHT22;26906;45.658;9.272;2022-11-15T18:23:48;11.70;99.90
41168;DHT22;26906;45.658;9.272;2022-11-15T18:26:16;11.70;99.90
41168;DHT22;26906;45.658;9.272;2022-11-15T18:28:47;11.70;99.90
41168;DHT22;26906;45.658;9.272;2022-11-15T18:33:40;11.70;99.90
41168;DHT22;26906;45.658;9.272;2022-11-15T18:36:08;11.80;99.90
41168;DHT22;26906;45.658;9.272;2022-11-15T18:38:34;11.70;99.90
41168;DHT22;26906;45.658;9.272;2022-11-15T18:41:26;11.70;99.90
41168;DHT22;26906;45.658;9.272;2022-11-15T18:43:54;11.70;99.90
41168;DHT22;26906;45.658;9.272;2022-11-15T18:46:22;11.70;99.90
41168;DHT22;26906;45.658;9.272;2022-11-15T18:48:50;11.70;99.90
41168;DHT22;26906;45.658;9.272;2022-11-15T18:51:18;11.50;99.90
41168;DHT22;26906;45.658;9.272;2022-11-15T18:53:44;11.50;99.90
41168;DHT22;26906;45.658;9.272;2022-11-15T18:56:14;11.60;99.90
41168;DHT22;26906;45.658;9.272;2022-11-15T18:58:43;11.60;99.90
41168;DHT22;26906;45.658;9.272;2022-11-15T19:01:10;11.50;99.90
41168;DHT22;26906;45.658;9.272;2022-11-15T19:03:39;11.60;99.90
41168;DHT22;26906;45.658;9.272;2022-11-15T19:06:09;11.60;99.90
41168;DHT22;26906;45.658;9.272;2022-11-15T19:08:36;11.70;99.90
41168;DHT22;26906;45.658;9.272;2022-11-15T19:11:07;11.70;99.90
41168;DHT22;26906;45.658;9.272;2022-11-15T19:13:34;11.70;99.90
41168;DHT22;26906;45.658;9.272;2022-11-15T19:16:01;11.70;99.90
41168;DHT22;26906;45.658;9.272;2022-11-15T19:18:28;11.70;99.90
41168;DHT22;26906;45.658;9.272;2022-11-15T19:20:55;11.70;99.90
41168;DHT22;26906;45.658;9.272;2022-11-15T19:23:22;11.70;99.90
41168;DHT22;26906;45.658;9.272;2022-11-15T19:25:59;11.80;99.90
41168;DHT22;26906;45.658;9.272;2022-11-15T19:28:26;11.90;99.90
41168;DHT22;26906;45.658;9.272;2022-11-15T19:30:53;11.90;99.90
41168;DHT22;26906;45.658;9.272;2022-11-15T19:33:20;11.90;99.90
41168;DHT22;26906;45.658;9.272;2022-11-15T19:35:46;11.80;99.90
41168;DHT22;26906;45.658;9.272;2022-11-15T19:38:13;11.80;99.90
41168;DHT22;26906;45.658;9.272;2022-11-15T19:40:39;11.70;99.90
41168;DHT22;26906;45.658;9.272;2022-11-15T19:43:05;11.80;99.90
41168;DHT22;26906;45.658;9.272;2022-11-15T19:45:30;11.70;99.90
41168;DHT22;26906;45.658;9.272;2022-11-15T19:47:57;11.70;99.90
41168;DHT22;26906;45.658;9.272;2022-11-15T19:50:24;11.70;99.90
41168;DHT22;26906;45.658;9.272;2022-11-15T19:52:49;11.70;99.90
41168;DHT22;26906;45.658;9.272;2022-11-15T19:55:15;11.70;99.90
41168;DHT22;26906;45.658;9.272;2022-11-15T19:57:42;11.70;99.90
41168;DHT22;26906;45.658;9.272;2022-11-15T20:00:08;11.70;99.90
41168;DHT22;26906;45.658;9.272;2022-11-15T20:02:34;11.70;99.90
41168;DHT22;26906;45.658;9.272;2022-11-15T20:04:59;11.70;99.90
41168;DHT22;26906;45.658;9.272;2022-11-15T20:07:25;11.70;99.90
41168;DHT22;26906;45.658;9.272;2022-11-15T20:09:51;11.70;99.90
41168;DHT22;26906;45.658;9.272;2022-11-15T20:12:16;11.70;99.90
41168;DHT22;26906;45.658;9.272;2022-11-15T20:14:42;11.70;99.90
41168;DHT22;26906;45.658;9.272;2022-11-15T20:17:10;11.80;99.90
41168;DHT22;26906;45.658;9.272;2022-11-15T20:19:35;11.80;99.90
41168;DHT22;26906;45.658;9.272;2022-11-15T20:22:01;11.90;99.90
41168;DHT22;26906;45.658;9.272;2022-11-15T20:24:27;11.90;99.90
41168;DHT22;26906;45.658;9.272;2022-11-15T20:26:53;12.00;99.90
41168;DHT22;26906;45.658;9.272;2022-11-15T20:29:18;12.00;99.90
41168;DHT22;26906;45.658;9.272;2022-11-15T20:31:44;11.80;99.90
41168;DHT22;26906;45.658;9.272;2022-11-15T20:34:09;11.80;99.90
41168;DHT22;26906;45.658;9.272;2022-11-15T20:36:36;11.90;99.90
41168;DHT22;26906;45.658;9.272;2022-11-15T20:39:01;11.80;99.90
41168;DHT22;26906;45.658;9.272;2022-11-15T20:41:27;11.70;99.90
41168;DHT22;26906;45.658;9.272;2022-11-15T20:43:53;11.70;99.90
41168;DHT22;26906;45.658;9.272;2022-11-15T20:46:19;11.70;99.90
41168;DHT22;26906;45.658;9.272;2022-11-15T20:48:46;11.80;99.90
